createdAt,value
2023-04-14T00:00:13.506Z,48.90
2023-04-14T00:01:17.030Z,49.23
2023-04-14T00:02:13.713Z,50.37
2023-04-14T00:03:10.911Z,51.00
2023-04-14T00:04:07.937Z,50.50
2023-04-14T00:05:05.418Z,50.35
2023-04-14T00:06:02.593Z,49.57
2023-04-14T00:07:00.158Z,50.03
2023-04-14T00:07:57.671Z,49.77
2023-04-14T00:08:54.344Z,51.59
2023-04-14T00:09:51.126Z,51.33
2023-04-14T00:10:47.864Z,51.99
2023-04-14T00:11:44.464Z,51.40
2023-04-14T00:12:41.176Z,50.31
2023-04-14T00:13:37.935Z,50.17
2023-04-14T00:14:34.554Z,50.86
2023-04-14T00:15:31.167Z,51.38
2023-04-14T00:16:27.891Z,50.48
2023-04-14T00:17:24.625Z,50.46
2023-04-14T00:18:21.274Z,51.94
2023-04-14T00:19:17.884Z,52.54
2023-04-14T00:20:14.508Z,51.11
2023-04-14T00:21:11.232Z,51.00
2023-04-14T00:22:08.475Z,51.33
2023-04-14T00:23:05.097Z,50.83
2023-04-14T00:24:01.705Z,50.46
2023-04-14T00:24:58.313Z,50.33
2023-04-14T00:25:55.103Z,50.39
2023-04-14T00:26:51.931Z,50.32
2023-04-14T00:27:48.536Z,52.39
2023-04-14T00:28:45.196Z,52.35
2023-04-14T00:29:41.820Z,52.40
2023-04-14T00:30:38.557Z,53.25
2023-04-14T00:31:35.482Z,53.86
2023-04-14T00:32:32.271Z,54.12
2023-04-14T00:33:28.930Z,53.43
2023-04-14T00:34:25.712Z,53.24
2023-04-14T00:35:22.510Z,54.11
2023-04-14T00:36:19.222Z,52.75
2023-04-14T00:37:16.746Z,52.72
2023-04-14T00:38:13.341Z,53.68
2023-04-14T00:39:09.989Z,53.73
2023-04-14T00:40:09.276Z,53.04
2023-04-14T00:41:05.974Z,53.48
2023-04-14T00:42:03.190Z,54.03
2023-04-14T00:42:59.763Z,54.92
2023-04-14T00:43:56.305Z,54.81
2023-04-14T00:44:52.991Z,54.52
2023-04-14T00:45:50.921Z,53.43
2023-04-14T00:46:48.017Z,51.55
2023-04-14T00:47:50.754Z,51.35
2023-04-14T00:48:48.036Z,52.24
2023-04-14T00:49:44.865Z,52.81
2023-04-14T00:50:42.565Z,53.93
2023-04-14T00:51:39.142Z,54.42
2023-04-14T00:52:37.688Z,52.89
2023-04-14T00:53:34.612Z,52.40
2023-04-14T00:54:32.670Z,53.25
2023-04-14T00:55:30.052Z,54.74
2023-04-14T00:56:26.822Z,55.07
2023-04-14T00:57:23.945Z,53.79
2023-04-14T00:58:20.843Z,54.61
2023-04-14T00:59:18.100Z,56.32
2023-04-14T01:00:15.815Z,54.41
2023-04-14T01:01:13.087Z,56.10
2023-04-14T01:02:10.544Z,56.09
2023-04-14T01:03:07.399Z,54.96
2023-04-14T01:04:04.733Z,54.65
2023-04-14T01:05:01.998Z,55.11
2023-04-14T01:05:58.774Z,54.17
2023-04-14T01:06:55.362Z,52.86
2023-04-14T01:07:52.866Z,52.03
2023-04-14T01:08:50.688Z,50.87
2023-04-14T01:09:47.730Z,51.63
2023-04-14T01:10:59.854Z,52.66
2023-04-14T01:12:19.282Z,53.06
2023-04-14T01:13:47.565Z,54.61
2023-04-14T01:15:02.282Z,54.48
2023-04-14T01:16:03.996Z,53.93
2023-04-14T01:17:10.380Z,53.75
2023-04-14T01:18:12.798Z,52.64
2023-04-14T01:19:47.449Z,53.33
2023-04-14T01:20:48.897Z,54.29
2023-04-14T01:21:52.441Z,53.92
2023-04-14T01:23:15.610Z,54.47
2023-04-14T01:24:30.888Z,54.81
2023-04-14T01:25:55.440Z,54.43
2023-04-14T01:27:04.825Z,55.19
2023-04-14T01:28:43.117Z,56.10
2023-04-14T01:30:24.525Z,53.99
2023-04-14T01:31:26.623Z,53.58
2023-04-14T01:32:25.665Z,54.54
2023-04-14T01:33:26.278Z,55.22
2023-04-14T01:34:34.249Z,56.31
2023-04-14T01:35:38.725Z,56.02
2023-04-14T01:36:42.417Z,55.74
2023-04-14T01:37:47.683Z,56.50
2023-04-14T01:38:47.589Z,56.38
2023-04-14T01:39:52.315Z,56.11
2023-04-14T01:40:51.667Z,56.37
2023-04-14T01:41:52.722Z,57.29
2023-04-14T01:42:59.539Z,56.72
2023-04-14T01:43:58.746Z,56.97
2023-04-14T01:44:58.949Z,56.95
2023-04-14T01:46:00.756Z,57.60
2023-04-14T01:47:02.426Z,57.14
2023-04-14T01:48:00.525Z,56.32
2023-04-14T01:48:57.382Z,56.83
2023-04-14T01:49:56.754Z,56.92
2023-04-14T01:50:55.545Z,57.43
2023-04-14T01:51:55.423Z,57.17
2023-04-14T01:52:57.106Z,57.95
2023-04-14T01:53:55.511Z,57.66
2023-04-14T01:54:54.698Z,57.15
2023-04-14T01:55:53.165Z,58.20
2023-04-14T01:56:52.465Z,57.56
2023-04-14T01:57:52.306Z,57.70
2023-04-14T01:58:50.118Z,56.65
2023-04-14T01:59:48.664Z,56.69
2023-04-14T02:00:46.597Z,56.14
2023-04-14T02:01:46.114Z,56.19
2023-04-14T02:02:48.475Z,55.31
2023-04-14T02:03:46.618Z,55.05
2023-04-14T02:04:44.528Z,55.30
2023-04-14T02:05:42.370Z,54.62
2023-04-14T02:06:40.767Z,54.22
2023-04-14T02:07:39.061Z,55.32
2023-04-14T02:08:40.777Z,55.49
2023-04-14T02:09:39.330Z,55.49
2023-04-14T02:10:38.741Z,56.29
2023-04-14T02:11:36.637Z,57.56
2023-04-14T02:12:36.299Z,58.06
2023-04-14T02:13:34.505Z,58.73
2023-04-14T02:14:32.648Z,57.42
2023-04-14T02:15:32.465Z,56.87
2023-04-14T02:16:29.962Z,56.53
2023-04-14T02:17:27.698Z,55.44
2023-04-14T02:18:25.984Z,55.67
2023-04-14T02:19:23.174Z,55.97
2023-04-14T02:20:21.361Z,55.19
2023-04-14T02:21:20.567Z,56.29
2023-04-14T02:22:17.150Z,55.17
2023-04-14T02:23:14.864Z,54.50
2023-04-14T02:24:11.678Z,54.54
2023-04-14T02:25:09.227Z,54.18
2023-04-14T02:26:12.701Z,53.43
2023-04-14T02:27:14.672Z,53.78
2023-04-14T02:28:19.679Z,54.45
2023-04-14T02:29:22.226Z,54.72
2023-04-14T02:30:30.268Z,54.69
2023-04-14T02:31:30.292Z,55.06
2023-04-14T02:32:29.975Z,56.02
2023-04-14T02:33:31.569Z,56.61
2023-04-14T02:34:33.864Z,58.41
2023-04-14T02:35:39.824Z,57.90
2023-04-14T02:37:00.853Z,58.26
2023-04-14T02:38:07.364Z,57.82
2023-04-14T02:39:10.458Z,58.12
2023-04-14T02:40:21.830Z,56.46
2023-04-14T02:41:26.708Z,56.44
2023-04-14T02:42:27.000Z,56.09
2023-04-14T02:43:30.898Z,56.36
2023-04-14T02:44:33.253Z,54.54
2023-04-14T02:45:33.035Z,54.36
2023-04-14T02:46:35.743Z,54.29
2023-04-14T02:47:38.154Z,55.18
2023-04-14T02:48:36.746Z,54.89
2023-04-14T02:49:37.131Z,54.87
2023-04-14T02:50:34.798Z,55.22
2023-04-14T02:51:33.091Z,55.24
2023-04-14T02:52:31.656Z,55.58
2023-04-14T02:53:28.717Z,55.29
2023-04-14T02:54:26.114Z,56.23
2023-04-14T02:55:23.488Z,56.29
2023-04-14T02:56:21.275Z,55.74
2023-04-14T02:57:18.430Z,54.42
2023-04-14T02:58:16.329Z,54.91
2023-04-14T02:59:13.222Z,55.79
2023-04-14T03:00:11.276Z,55.87
2023-04-14T03:01:08.268Z,56.41
2023-04-14T03:02:06.392Z,55.35
2023-04-14T03:03:05.427Z,54.40
2023-04-14T03:04:02.449Z,55.58
2023-04-14T03:05:00.785Z,55.17
2023-04-14T03:05:57.803Z,54.35
2023-04-14T03:06:55.904Z,55.39
2023-04-14T03:07:55.094Z,55.53
2023-04-14T03:08:54.041Z,56.00
2023-04-14T03:09:52.022Z,55.62
2023-04-14T03:10:48.991Z,54.65
2023-04-14T03:11:46.579Z,54.25
2023-04-14T03:12:44.260Z,54.71
2023-04-14T03:13:43.617Z,53.58
2023-04-14T03:14:41.601Z,53.54
2023-04-14T03:15:39.352Z,54.48
2023-04-14T03:16:39.422Z,53.06
2023-04-14T03:17:37.276Z,53.62
2023-04-14T03:18:35.555Z,54.15
2023-04-14T03:19:33.120Z,54.67
2023-04-14T03:20:30.440Z,54.95
2023-04-14T03:21:30.198Z,55.04
2023-04-14T03:22:28.338Z,53.93
2023-04-14T03:23:25.940Z,54.00
2023-04-14T03:24:27.420Z,54.59
2023-04-14T03:25:37.990Z,54.52
2023-04-14T03:26:37.462Z,54.88
2023-04-14T03:27:35.816Z,55.48
2023-04-14T03:28:37.553Z,54.35
2023-04-14T03:29:38.713Z,54.45
2023-04-14T03:30:40.584Z,54.79
2023-04-14T03:31:38.927Z,54.83
2023-04-14T03:32:42.037Z,55.36
2023-04-14T03:33:40.893Z,55.86
2023-04-14T03:34:46.627Z,56.07
2023-04-14T03:35:44.746Z,56.25
2023-04-14T03:36:43.696Z,54.72
2023-04-14T03:37:41.624Z,55.21
2023-04-14T03:38:39.529Z,55.46
2023-04-14T03:39:39.225Z,54.81
2023-04-14T03:40:40.127Z,54.99
2023-04-14T03:41:37.934Z,55.01
2023-04-14T03:42:36.161Z,54.70
2023-04-14T03:43:33.801Z,53.30
2023-04-14T03:44:34.470Z,54.37
2023-04-14T03:45:32.351Z,53.94
2023-04-14T03:46:30.326Z,53.53
2023-04-14T03:47:31.731Z,53.28
2023-04-14T03:48:34.339Z,54.48
2023-04-14T03:49:33.370Z,54.85
2023-04-14T03:50:36.833Z,54.42
2023-04-14T03:51:35.161Z,54.68
2023-04-14T03:52:35.610Z,54.38
2023-04-14T03:53:34.922Z,54.81
2023-04-14T03:54:33.848Z,54.10
2023-04-14T03:55:32.963Z,54.41
2023-04-14T03:56:32.603Z,54.82
2023-04-14T03:57:32.622Z,55.69
2023-04-14T03:58:30.947Z,54.76
2023-04-14T03:59:28.388Z,54.35
2023-04-14T04:00:27.187Z,54.43
2023-04-14T04:01:26.040Z,54.24
2023-04-14T04:02:24.329Z,54.63
2023-04-14T04:03:23.266Z,54.34
2023-04-14T04:04:21.449Z,54.68
2023-04-14T04:05:18.854Z,54.97
2023-04-14T04:06:15.968Z,54.37
2023-04-14T04:07:13.622Z,53.42
2023-04-14T04:08:11.479Z,54.14
2023-04-14T04:09:12.622Z,54.19
2023-04-14T04:10:12.574Z,55.91
2023-04-14T04:11:10.493Z,56.20
2023-04-14T04:12:08.272Z,53.91
2023-04-14T04:13:11.202Z,55.16
2023-04-14T04:14:09.597Z,55.56
2023-04-14T04:15:06.937Z,54.97
2023-04-14T04:16:07.529Z,54.05
2023-04-14T04:17:07.294Z,53.61
2023-04-14T04:18:07.303Z,54.34
2023-04-14T04:19:06.398Z,54.60
2023-04-14T04:20:08.068Z,54.18
2023-04-14T04:21:04.931Z,54.56
2023-04-14T04:22:03.040Z,53.83
2023-04-14T04:23:01.834Z,54.06
2023-04-14T04:24:01.673Z,53.19
2023-04-14T04:24:58.792Z,53.62
2023-04-14T04:25:58.708Z,54.08
2023-04-14T04:26:56.262Z,53.46
2023-04-14T04:27:53.111Z,53.08
2023-04-14T04:28:50.874Z,52.80
2023-04-14T04:29:48.210Z,53.62
2023-04-14T04:30:46.485Z,53.06
2023-04-14T04:31:43.237Z,52.45
2023-04-14T04:32:39.914Z,52.21
2023-04-14T04:33:37.258Z,52.55
2023-04-14T04:34:35.334Z,52.37
2023-04-14T04:35:32.992Z,52.61
2023-04-14T04:36:32.098Z,52.70
2023-04-14T04:37:30.169Z,52.66
2023-04-14T04:38:26.832Z,52.79
2023-04-14T04:39:23.386Z,52.68
2023-04-14T04:40:20.223Z,52.53
2023-04-14T04:41:30.272Z,53.19
2023-04-14T04:42:26.897Z,53.04
2023-04-14T04:43:23.464Z,53.58
2023-04-14T04:44:20.065Z,53.14
2023-04-14T04:45:36.615Z,53.35
2023-04-14T04:46:48.549Z,54.02
2023-04-14T04:47:45.587Z,53.86
2023-04-14T04:48:42.250Z,54.35
2023-04-14T04:49:38.932Z,53.97
2023-04-14T04:50:35.537Z,53.28
2023-04-14T04:51:32.174Z,53.84
2023-04-14T04:52:28.735Z,53.49
2023-04-14T04:53:25.482Z,52.89
2023-04-14T04:54:22.156Z,53.79
2023-04-14T04:55:18.777Z,53.20
2023-04-14T04:56:15.483Z,53.74
2023-04-14T04:57:12.330Z,53.83
2023-04-14T04:58:09.379Z,53.51
2023-04-14T04:59:06.037Z,54.54
2023-04-14T05:00:02.773Z,55.13
2023-04-14T05:00:59.500Z,54.73
2023-04-14T05:01:56.531Z,54.63
2023-04-14T05:02:53.501Z,54.02
2023-04-14T05:03:50.636Z,54.70
2023-04-14T05:04:48.868Z,54.98
2023-04-14T05:05:45.717Z,55.72
2023-04-14T05:06:42.417Z,55.66
2023-04-14T05:07:38.993Z,56.29
2023-04-14T05:08:35.579Z,56.40
2023-04-14T05:09:32.264Z,56.65
2023-04-14T05:10:28.956Z,57.05
2023-04-14T05:11:27.101Z,56.71
2023-04-14T05:12:23.694Z,56.18
2023-04-14T05:13:20.491Z,56.73
2023-04-14T05:14:17.111Z,56.37
2023-04-14T05:15:13.669Z,57.04
2023-04-14T05:16:11.659Z,57.17
2023-04-14T05:17:08.254Z,56.83
2023-04-14T05:18:04.924Z,57.24
2023-04-14T05:19:03.328Z,56.88
2023-04-14T05:20:00.111Z,56.77
2023-04-14T05:21:01.427Z,56.15
2023-04-14T05:21:58.025Z,56.09
2023-04-14T05:22:54.661Z,56.19
2023-04-14T05:23:51.405Z,55.97
2023-04-14T05:24:51.696Z,56.42
2023-04-14T05:25:48.351Z,56.87
2023-04-14T05:27:01.700Z,56.12
2023-04-14T05:28:01.809Z,56.07
2023-04-14T05:28:58.446Z,56.13
2023-04-14T05:29:55.483Z,57.55
2023-04-14T05:30:52.267Z,56.96
2023-04-14T05:31:48.952Z,56.26
2023-04-14T05:32:45.669Z,56.54
2023-04-14T05:33:42.373Z,56.34
2023-04-14T05:34:39.005Z,55.72
2023-04-14T05:35:35.698Z,54.93
2023-04-14T05:36:32.384Z,55.79
2023-04-14T05:37:30.068Z,55.30
2023-04-14T05:38:27.193Z,55.23
2023-04-14T05:39:23.933Z,53.20
2023-04-14T05:40:22.305Z,53.74
2023-04-14T05:41:18.947Z,54.26
2023-04-14T05:42:15.592Z,54.59
2023-04-14T05:43:12.375Z,53.98
2023-04-14T05:44:08.918Z,53.71
2023-04-14T05:45:06.385Z,52.92
2023-04-14T05:46:04.753Z,53.31
2023-04-14T05:47:01.492Z,53.97
2023-04-14T05:47:58.564Z,53.14
2023-04-14T05:48:56.870Z,53.30
2023-04-14T05:49:53.665Z,52.76
2023-04-14T05:50:50.287Z,53.48
2023-04-14T05:51:46.903Z,53.70
2023-04-14T05:52:43.638Z,52.63
2023-04-14T05:53:40.242Z,52.68
2023-04-14T05:54:36.870Z,51.80
2023-04-14T05:55:33.625Z,53.40
2023-04-14T05:56:30.274Z,52.65
2023-04-14T05:57:26.990Z,52.21
2023-04-14T05:58:24.954Z,53.38
2023-04-14T05:59:21.665Z,53.36
2023-04-14T06:00:19.889Z,53.01
2023-04-14T06:01:16.486Z,52.92
2023-04-14T06:02:13.209Z,52.12
2023-04-14T06:03:10.357Z,53.36
2023-04-14T06:04:07.423Z,53.10
2023-04-14T06:05:07.548Z,53.34
2023-04-14T06:06:04.885Z,52.54
2023-04-14T06:07:03.099Z,51.88
2023-04-14T06:07:59.762Z,52.42
2023-04-14T06:08:56.446Z,52.82
2023-04-14T06:09:53.328Z,52.96
2023-04-14T06:10:50.052Z,53.40
2023-04-14T06:11:46.737Z,52.73
2023-04-14T06:12:43.337Z,53.12
2023-04-14T06:13:39.986Z,53.01
2023-04-14T06:14:36.554Z,52.83
2023-04-14T06:15:33.136Z,51.87
2023-04-14T06:16:29.929Z,52.79
2023-04-14T06:17:26.730Z,52.47
2023-04-14T06:18:23.515Z,53.19
2023-04-14T06:19:20.276Z,52.61
2023-04-14T06:20:18.584Z,53.32
2023-04-14T06:21:15.468Z,53.00
2023-04-14T06:22:13.984Z,52.86
2023-04-14T06:23:10.927Z,53.29
2023-04-14T06:24:07.657Z,53.57
2023-04-14T06:25:04.661Z,53.33
2023-04-14T06:26:03.891Z,53.08
2023-04-14T06:27:03.778Z,52.70
2023-04-14T06:28:03.626Z,52.28
2023-04-14T06:29:01.206Z,52.94
2023-04-14T06:30:00.140Z,53.03
2023-04-14T06:30:56.830Z,53.96
2023-04-14T06:31:54.937Z,54.06
2023-04-14T06:32:54.441Z,53.37
2023-04-14T06:33:52.951Z,52.90
2023-04-14T06:34:51.936Z,52.45
2023-04-14T06:35:49.997Z,52.07
2023-04-14T06:36:46.655Z,52.72
2023-04-14T06:37:43.270Z,53.41
2023-04-14T06:38:39.925Z,52.93
2023-04-14T06:39:36.540Z,52.14
2023-04-14T06:40:33.124Z,52.55
2023-04-14T06:41:29.760Z,52.84
2023-04-14T06:42:26.364Z,52.65
2023-04-14T06:43:22.907Z,53.18
2023-04-14T06:44:19.532Z,52.94
2023-04-14T06:45:16.358Z,52.31
2023-04-14T06:46:13.106Z,52.43
2023-04-14T06:47:09.787Z,52.61
2023-04-14T06:48:07.898Z,52.42
2023-04-14T06:49:04.720Z,52.43
2023-04-14T06:50:03.118Z,51.72
2023-04-14T06:50:59.849Z,51.73
2023-04-14T06:51:56.389Z,51.50
2023-04-14T06:52:53.090Z,51.44
2023-04-14T06:53:49.710Z,51.43
2023-04-14T06:54:46.915Z,51.55
2023-04-14T06:55:43.582Z,51.11
2023-04-14T06:56:40.311Z,51.69
2023-04-14T06:57:36.940Z,51.24
2023-04-14T06:58:33.932Z,51.60
2023-04-14T06:59:30.678Z,51.69
2023-04-14T07:00:27.509Z,50.26
2023-04-14T07:01:24.626Z,51.60
2023-04-14T07:02:21.439Z,51.67
2023-04-14T07:03:18.209Z,51.59
2023-04-14T07:04:15.565Z,50.30
2023-04-14T07:05:12.508Z,50.34
2023-04-14T07:06:11.952Z,49.94
2023-04-14T07:07:08.694Z,50.39
2023-04-14T07:08:05.427Z,49.82
2023-04-14T07:09:02.348Z,49.60
2023-04-14T07:09:58.974Z,49.53
2023-04-14T07:10:59.778Z,50.53
2023-04-14T07:11:57.657Z,49.24
2023-04-14T07:12:54.324Z,49.54
2023-04-14T07:13:50.950Z,48.48
2023-04-14T07:14:52.029Z,48.06
2023-04-14T07:15:48.790Z,49.31
2023-04-14T07:16:45.514Z,46.92
2023-04-14T07:17:42.159Z,47.06
2023-04-14T07:18:38.849Z,47.43
2023-04-14T07:19:35.788Z,45.93
2023-04-14T07:20:32.596Z,45.49
2023-04-14T07:21:29.257Z,45.23
2023-04-14T07:22:25.870Z,44.48
2023-04-14T07:23:22.796Z,44.73
2023-04-14T07:24:19.431Z,45.79
2023-04-14T07:25:16.090Z,45.08
2023-04-14T07:26:12.783Z,45.61
2023-04-14T07:27:15.440Z,45.36
2023-04-14T07:28:12.285Z,44.37
2023-04-14T07:29:08.944Z,44.00
2023-04-14T07:30:06.332Z,44.51
2023-04-14T07:31:12.754Z,44.44
2023-04-14T07:32:09.506Z,44.68
2023-04-14T07:33:06.573Z,44.14
2023-04-14T07:34:03.578Z,44.99
2023-04-14T07:35:00.644Z,45.27
2023-04-14T07:36:57.125Z,44.69
2023-04-14T07:37:53.691Z,43.24
2023-04-14T07:38:51.826Z,43.85
2023-04-14T07:39:48.566Z,43.58
2023-04-14T07:40:45.819Z,43.91
2023-04-14T07:41:42.436Z,43.82
2023-04-14T07:42:39.030Z,44.19
2023-04-14T07:43:36.030Z,43.00
2023-04-14T07:44:33.318Z,42.79
2023-04-14T07:45:31.183Z,43.12
2023-04-14T07:46:27.962Z,43.27
2023-04-14T07:47:24.770Z,42.55
2023-04-14T07:48:21.972Z,44.00
2023-04-14T07:49:18.762Z,43.19
2023-04-14T07:50:18.471Z,42.24
2023-04-14T07:51:16.355Z,41.92
2023-04-14T07:52:12.954Z,42.86
2023-04-14T07:53:09.521Z,42.90
2023-04-14T07:54:06.303Z,43.48
2023-04-14T07:55:03.980Z,42.90
2023-04-14T07:56:00.991Z,42.08
2023-04-14T07:56:57.992Z,42.81
2023-04-14T07:57:54.650Z,43.92
2023-04-14T07:58:51.285Z,43.42
2023-04-14T07:59:47.917Z,42.88
2023-04-14T08:00:44.650Z,43.27
2023-04-14T08:01:41.742Z,43.05
2023-04-14T08:02:38.627Z,42.48
2023-04-14T08:03:37.512Z,42.16
2023-04-14T08:04:34.478Z,42.61
2023-04-14T08:05:31.311Z,41.08
2023-04-14T08:06:28.489Z,42.47
2023-04-14T08:07:28.651Z,42.40
2023-04-14T08:08:25.492Z,41.19
2023-04-14T08:09:22.348Z,42.34
2023-04-14T08:10:19.004Z,42.02
2023-04-14T08:11:15.712Z,41.61
2023-04-14T08:12:12.385Z,41.52
2023-04-14T08:13:09.377Z,44.59
2023-04-14T08:14:06.057Z,42.96
2023-04-14T08:15:02.825Z,42.21
2023-04-14T08:15:59.551Z,42.35
2023-04-14T08:16:56.167Z,43.47
2023-04-14T08:17:52.752Z,42.15
2023-04-14T08:18:49.448Z,42.25
2023-04-14T08:19:46.912Z,41.48
2023-04-14T08:20:43.562Z,41.90
2023-04-14T08:21:40.186Z,42.30
2023-04-14T08:22:36.966Z,42.70
2023-04-14T08:23:34.059Z,41.79
2023-04-14T08:24:31.087Z,42.33
2023-04-14T08:25:27.685Z,41.49
2023-04-14T08:26:24.525Z,41.02
2023-04-14T08:27:21.353Z,41.23
2023-04-14T08:28:18.419Z,43.21
2023-04-14T08:29:15.504Z,42.30
2023-04-14T08:30:12.533Z,41.14
2023-04-14T08:31:09.114Z,41.48
2023-04-14T08:32:05.968Z,41.21
2023-04-14T08:33:05.797Z,41.38
2023-04-14T08:34:03.163Z,41.59
2023-04-14T08:35:35.985Z,40.77
2023-04-14T08:36:16.549Z,40.69
2023-04-14T08:37:13.214Z,40.61
2023-04-14T08:38:10.168Z,40.11
2023-04-14T08:39:07.039Z,39.72
2023-04-14T08:40:04.896Z,40.70
2023-04-14T08:41:07.326Z,41.17
2023-04-14T08:42:05.230Z,40.83
2023-04-14T08:43:01.934Z,40.81
2023-04-14T08:43:58.581Z,41.54
2023-04-14T08:44:56.046Z,41.00
2023-04-14T08:45:53.580Z,41.23
2023-04-14T08:46:54.483Z,39.98
2023-04-14T08:47:55.160Z,36.60
2023-04-14T08:48:59.082Z,38.91
2023-04-14T08:50:01.659Z,38.15
2023-04-14T08:51:13.944Z,37.82
2023-04-14T08:52:14.380Z,38.55
2023-04-14T08:53:13.511Z,39.94
2023-04-14T08:54:11.501Z,39.58
2023-04-14T08:55:08.387Z,39.65
2023-04-14T08:56:08.808Z,36.23
2023-04-14T08:57:09.028Z,36.72
2023-04-14T08:58:08.190Z,38.17
2023-04-14T08:59:09.849Z,37.43
2023-04-14T09:00:07.201Z,39.08
2023-04-14T09:01:04.692Z,37.98
2023-04-14T09:02:05.609Z,38.14
2023-04-14T09:03:02.703Z,38.75
2023-04-14T09:04:01.797Z,38.97
2023-04-14T09:04:59.392Z,38.17
2023-04-14T09:05:56.649Z,40.49
2023-04-14T09:06:54.528Z,39.16
2023-04-14T09:07:51.826Z,39.51
2023-04-14T09:08:48.610Z,40.45
2023-04-14T09:09:45.382Z,39.99
2023-04-14T09:10:42.839Z,40.71
2023-04-14T09:11:40.674Z,40.40
2023-04-14T09:12:41.590Z,40.50
2023-04-14T09:13:40.673Z,41.15
2023-04-14T09:14:37.605Z,41.22
2023-04-14T09:15:34.302Z,39.39
2023-04-14T09:16:32.065Z,38.98
2023-04-14T09:17:31.043Z,37.91
2023-04-14T09:18:28.853Z,38.86
2023-04-14T09:19:28.222Z,39.04
2023-04-14T09:20:38.220Z,39.77
2023-04-14T09:21:53.968Z,40.70
2023-04-14T09:22:53.286Z,41.01
2023-04-14T09:23:50.514Z,40.60
2023-04-14T09:24:47.689Z,40.95
2023-04-14T09:25:45.311Z,39.36
2023-04-14T09:26:42.772Z,39.53
2023-04-14T09:27:40.107Z,41.16
2023-04-14T09:28:37.365Z,41.38
2023-04-14T09:29:34.197Z,41.20
2023-04-14T09:30:31.792Z,41.07
2023-04-14T09:31:28.652Z,41.28
2023-04-14T09:32:26.117Z,41.19
2023-04-14T09:33:23.724Z,42.61
2023-04-14T09:34:21.611Z,43.12
2023-04-14T09:35:18.332Z,43.99
2023-04-14T09:36:22.509Z,42.67
2023-04-14T09:37:19.930Z,43.11
2023-04-14T09:38:35.092Z,41.83
2023-04-14T09:39:32.850Z,41.18
2023-04-14T09:40:31.119Z,40.13
2023-04-14T09:41:28.075Z,41.16
2023-04-14T09:42:41.057Z,39.29
2023-04-14T09:43:37.678Z,40.11
2023-04-14T09:44:34.292Z,40.00
2023-04-14T09:45:44.892Z,41.16
2023-04-14T09:47:05.240Z,40.74
2023-04-14T09:48:08.354Z,44.02
2023-04-14T09:49:05.288Z,41.77
2023-04-14T09:50:04.152Z,42.87
2023-04-14T09:51:09.997Z,42.73
2023-04-14T09:52:09.804Z,42.71
2023-04-14T09:53:08.521Z,42.50
2023-04-14T09:54:06.268Z,43.42
2023-04-14T09:55:08.288Z,43.36
2023-04-14T09:56:10.638Z,43.98
2023-04-14T09:57:08.038Z,43.06
2023-04-14T09:58:04.741Z,39.39
2023-04-14T09:59:02.720Z,39.90
2023-04-14T09:59:59.902Z,39.65
2023-04-14T10:00:57.274Z,39.89
2023-04-14T10:01:58.537Z,39.23
2023-04-14T10:02:58.412Z,39.21
2023-04-14T10:03:55.222Z,38.93
2023-04-14T10:05:06.470Z,39.33
2023-04-14T10:06:07.424Z,38.63
2023-04-14T10:07:11.254Z,37.99
2023-04-14T10:08:07.896Z,37.77
2023-04-14T10:09:05.890Z,38.33
2023-04-14T10:10:07.553Z,38.04
2023-04-14T10:11:26.513Z,37.36
2023-04-14T10:12:23.204Z,37.12
2023-04-14T10:13:20.136Z,37.66
2023-04-14T10:14:18.080Z,37.92
2023-04-14T10:15:15.559Z,38.25
2023-04-14T10:16:12.376Z,38.28
2023-04-14T10:17:09.896Z,38.80
2023-04-14T10:18:07.101Z,38.67
2023-04-14T10:19:04.207Z,39.21
2023-04-14T10:20:01.106Z,39.13
2023-04-14T10:20:58.998Z,39.45
2023-04-14T10:21:56.304Z,39.29
2023-04-14T10:22:54.822Z,39.28
2023-04-14T10:23:52.475Z,38.76
2023-04-14T10:24:49.856Z,38.91
2023-04-14T10:25:49.300Z,38.75
2023-04-14T10:26:48.169Z,39.05
2023-04-14T10:27:45.334Z,38.73
2023-04-14T10:28:47.645Z,39.31
2023-04-14T10:29:44.248Z,39.37
2023-04-14T10:30:41.206Z,39.70
2023-04-14T10:31:40.307Z,39.69
2023-04-14T10:32:40.568Z,40.12
2023-04-14T10:33:40.466Z,40.32
2023-04-14T10:34:39.571Z,40.43
2023-04-14T10:35:41.724Z,39.98
2023-04-14T10:36:38.884Z,39.99
2023-04-14T10:37:36.813Z,40.54
2023-04-14T10:38:44.211Z,40.38
2023-04-14T10:39:41.432Z,40.94
2023-04-14T10:40:48.651Z,41.09
2023-04-14T10:41:48.253Z,41.90
2023-04-14T10:42:53.361Z,42.65
2023-04-14T10:43:50.072Z,43.09
2023-04-14T10:45:05.909Z,46.03
2023-04-14T10:46:03.843Z,47.87
2023-04-14T10:47:04.943Z,49.69
2023-04-14T10:48:03.836Z,50.04
2023-04-14T10:49:03.162Z,50.70
2023-04-14T10:50:11.217Z,51.22
2023-04-14T10:51:10.680Z,52.33
2023-04-14T10:52:27.663Z,53.07
2023-04-14T10:53:33.886Z,53.32
2023-04-14T10:54:53.396Z,53.78
2023-04-14T10:55:53.666Z,54.06
2023-04-14T10:57:12.661Z,54.48
2023-04-14T10:58:09.417Z,54.70
2023-04-14T10:59:05.976Z,54.74
2023-04-14T11:00:25.319Z,55.77
2023-04-14T11:01:32.791Z,55.98
2023-04-14T11:02:34.488Z,56.33
2023-04-14T11:03:32.791Z,57.28
2023-04-14T11:04:29.719Z,58.61
2023-04-14T11:05:27.094Z,58.61
2023-04-14T11:06:58.926Z,60.38
2023-04-14T11:08:02.680Z,61.52
2023-04-14T11:08:59.936Z,61.57
2023-04-14T11:10:25.132Z,63.82
2023-04-14T11:11:28.537Z,66.06
2023-04-14T11:12:27.746Z,67.55
2023-04-14T11:13:24.467Z,68.25
2023-04-14T11:14:30.797Z,69.25
2023-04-14T11:15:43.312Z,70.18
2023-04-14T11:16:44.801Z,68.75
2023-04-14T11:17:47.517Z,71.10
2023-04-14T11:19:00.149Z,71.74
2023-04-14T11:19:58.058Z,71.46
2023-04-14T11:21:01.308Z,70.28
2023-04-14T11:21:58.078Z,70.49
2023-04-14T11:22:57.674Z,69.26
2023-04-14T11:23:54.285Z,67.67
2023-04-14T11:24:50.939Z,66.65
2023-04-14T11:25:48.583Z,64.96
2023-04-14T11:26:45.587Z,64.82
2023-04-14T11:27:43.235Z,64.51
2023-04-14T11:28:42.939Z,64.78
2023-04-14T11:29:39.927Z,64.05
2023-04-14T11:30:36.671Z,63.37
2023-04-14T11:31:33.361Z,60.92
2023-04-14T11:32:31.102Z,61.37
2023-04-14T11:33:34.192Z,61.48
2023-04-14T11:34:31.290Z,61.00
2023-04-14T11:35:29.353Z,59.24
2023-04-14T11:36:26.061Z,58.41
2023-04-14T11:37:23.037Z,58.29
2023-04-14T11:38:20.905Z,57.71
2023-04-14T11:39:17.656Z,54.75
2023-04-14T11:40:16.709Z,54.71
2023-04-14T11:41:15.761Z,54.73
2023-04-14T11:42:13.134Z,53.59
2023-04-14T11:43:09.774Z,53.35
2023-04-14T11:44:06.460Z,51.65
2023-04-14T11:45:04.618Z,50.96
2023-04-14T11:46:04.735Z,50.99
2023-04-14T11:47:01.637Z,50.97
2023-04-14T11:48:05.748Z,50.81
2023-04-14T11:49:04.448Z,48.82
2023-04-14T11:50:05.355Z,47.40
2023-04-14T11:51:03.898Z,48.06
2023-04-14T11:52:08.159Z,48.46
2023-04-14T11:53:10.173Z,50.20
2023-04-14T11:54:07.078Z,47.98
2023-04-14T11:55:04.033Z,47.24
2023-04-14T11:56:01.419Z,48.16
2023-04-14T11:56:58.133Z,48.56
2023-04-14T11:57:56.141Z,49.44
2023-04-14T11:59:00.741Z,48.02
2023-04-14T11:59:57.631Z,47.31
2023-04-14T12:00:56.442Z,48.92
2023-04-14T12:01:53.480Z,50.09
2023-04-14T12:02:51.192Z,50.36
2023-04-14T12:03:49.662Z,49.31
2023-04-14T12:04:48.581Z,49.28
2023-04-14T12:05:47.154Z,48.42
2023-04-14T12:06:44.239Z,48.95
2023-04-14T12:07:44.532Z,50.23
2023-04-14T12:08:41.222Z,50.57
2023-04-14T12:09:44.685Z,51.21
2023-04-14T12:10:46.844Z,51.74
2023-04-14T12:11:53.709Z,51.74
2023-04-14T12:12:50.407Z,54.08
2023-04-14T12:13:48.045Z,53.34
2023-04-14T12:14:47.795Z,53.66
2023-04-14T12:15:44.959Z,54.29
2023-04-14T12:16:42.179Z,54.99
2023-04-14T12:17:39.155Z,55.79
2023-04-14T12:18:36.107Z,56.92
2023-04-14T12:19:32.910Z,57.87
2023-04-14T12:20:41.812Z,59.21
2023-04-14T12:21:38.534Z,60.37
2023-04-14T12:22:35.284Z,60.76
2023-04-14T12:23:39.999Z,61.96
2023-04-14T12:24:38.454Z,61.75
2023-04-14T12:25:35.043Z,63.35
2023-04-14T12:26:32.759Z,64.04
2023-04-14T12:27:29.496Z,65.43
2023-04-14T12:28:30.475Z,66.83
2023-04-14T12:29:27.452Z,68.18
2023-04-14T12:30:24.559Z,69.90
2023-04-14T12:31:28.740Z,68.89
2023-04-14T12:32:25.791Z,69.50
2023-04-14T12:33:23.834Z,70.86
2023-04-14T12:34:26.907Z,71.04
2023-04-14T12:35:24.188Z,71.35
2023-04-14T12:36:21.756Z,70.96
2023-04-14T12:37:25.222Z,70.97
2023-04-14T12:38:28.139Z,71.36
2023-04-14T12:39:26.126Z,71.43
2023-04-14T12:40:38.429Z,72.11
2023-04-14T12:41:39.466Z,70.93
2023-04-14T12:42:51.403Z,71.43
2023-04-14T12:43:48.155Z,69.99
2023-04-14T12:45:01.255Z,69.48